Weather at North Houston Airport

Public forecast

Using degrees Fahrenheit for public forecast. Weather courtesy of forecast.io.

Closest aviation weather report (METAR) to North Houston Airport

Closest report is George Bush Intercontinental Houston Airport, 10.2 nm (18.9 km) S. Retrieved 2020/10/30 12:53 UTC (40 minutes ago):

KIAH 301253Z 36004KT 10SM CLR 07/06 A3026 RMK AO2 SLP246 T00720056

Closest aviation forecast (TAF) to North Houston Airport

Closest forecast is George Bush Intercontinental Houston Airport, 10.2 nm (18.9 km) S. Retrieved 2020/10/30 12:30 UTC (1 hour ago):

TAF KIAH 301129Z 3012/3118 35007KT P6SM SKC FM310600 04003KT P6SM SKC FM311500 08004KT P6SM SKC